Time;durP1;ratioP1;P1;durP2;ratioP2;P2;SDS_P1;SDS_P2;PMS_P1;PMS_P2;Temp;Humidity;BMP_temperature;BMP_pressure;BME280_temperature;BME280_humidity;BME280_pressure;Samples;Min_cycle;Max_cycle;Signal;HPM_P1;HPM_P2
2023/01/15 00:01:42;;;;;;;0.65;0.60;;;8.70;99.90;;;;;;4406234;32;20709;-71
2023/01/15 00:04:10;;;;;;;0.40;0.40;;;8.70;99.90;;;;;;4405353;32;20101;-74
2023/01/15 00:06:38;;;;;;;0.32;0.32;;;8.80;99.90;;;;;;4407795;32;20090;-72
2023/01/15 00:11:32;;;;;;;0.32;0.32;;;8.80;99.90;;;;;;4390869;32;20086;-73
2023/01/15 00:13:58;;;;;;;0.40;0.40;;;8.90;99.90;;;;;;4391030;32;20057;-75
2023/01/15 00:16:25;;;;;;;0.30;0.30;;;8.90;99.90;;;;;;4403948;32;20128;-72
2023/01/15 00:18:52;;;;;;;0.30;0.30;;;8.90;99.90;;;;;;4403270;32;20446;-73
2023/01/15 00:21:19;;;;;;;0.40;0.40;;;8.90;99.90;;;;;;4406290;32;20062;-72
2023/01/15 00:27:39;;;;;;;0.30;0.30;;;8.90;99.90;;;;;;4393465;32;20065;-73
2023/01/15 00:29:18;;;;;;;0.37;0.37;;;8.90;99.90;;;;;;4392373;32;20061;-73
2023/01/15 00:31:52;;;;;;;0.37;0.37;;;8.90;99.90;;;;;;4402918;32;20114;-72
2023/01/15 00:34:17;;;;;;;0.88;0.88;;;8.90;99.90;;;;;;4404233;32;20078;-72
2023/01/15 00:36:43;;;;;;;0.32;0.32;;;8.90;99.90;;;;;;4406538;32;20081;-72
2023/01/15 00:39:08;;;;;;;0.62;0.62;;;9.00;99.90;;;;;;4405024;32;20144;-72
2023/01/15 00:41:34;;;;;;;0.37;0.37;;;9.00;99.90;;;;;;4394153;32;20457;-74
2023/01/15 00:43:59;;;;;;;2.53;0.70;;;9.00;99.90;;;;;;4391015;32;20093;-75
2023/01/15 00:46:26;;;;;;;0.40;0.40;;;9.10;99.90;;;;;;4408241;32;20467;-72
2023/01/15 00:48:51;;;;;;;0.50;0.50;;;9.10;99.90;;;;;;4408705;32;20128;-74
2023/01/15 00:51:17;;;;;;;0.32;0.32;;;9.10;99.90;;;;;;4409309;32;20081;-72
2023/01/15 00:53:42;;;;;;;1.87;0.80;;;9.10;99.90;;;;;;4409300;32;20378;-72
2023/01/15 00:56:08;;;;;;;0.40;0.40;;;9.10;99.90;;;;;;4409040;32;20488;-72
2023/01/15 00:58:33;;;;;;;0.93;0.57;;;9.10;99.90;;;;;;4407955;32;20074;-71
2023/01/15 01:00:59;;;;;;;0.32;0.32;;;9.10;99.90;;;;;;4407729;32;20505;-74
2023/01/15 01:03:25;;;;;;;0.40;0.40;;;9.10;99.90;;;;;;4406605;32;20089;-74
2023/01/15 01:05:51;;;;;;;0.40;0.40;;;9.10;99.90;;;;;;4407758;32;20494;-75
2023/01/15 01:08:16;;;;;;;0.40;0.40;;;9.10;99.90;;;;;;4408859;32;20090;-75
2023/01/15 01:10:42;;;;;;;0.30;0.30;;;9.20;99.90;;;;;;4399487;32;20066;-74
2023/01/15 01:13:08;;;;;;;0.30;0.30;;;9.20;99.90;;;;;;4390371;32;20082;-72
2023/01/15 01:15:35;;;;;;;0.30;0.30;;;9.20;99.90;;;;;;4400461;32;20128;-73
2023/01/15 01:18:02;;;;;;;0.40;0.40;;;9.20;99.90;;;;;;4408094;32;20493;-72
2023/01/15 01:20:28;;;;;;;0.50;0.50;;;9.20;99.90;;;;;;4407784;32;20394;-71
2023/01/15 01:22:54;;;;;;;0.40;0.40;;;9.20;99.90;;;;;;4408610;32;21298;-72
2023/01/15 01:25:21;;;;;;;0.30;0.30;;;9.30;99.90;;;;;;4408206;32;20086;-73
2023/01/15 01:27:46;;;;;;;0.40;0.40;;;9.30;99.90;;;;;;4407536;32;20081;-73
2023/01/15 01:30:13;;;;;;;0.40;0.40;;;9.30;99.90;;;;;;4406387;32;20417;-71
2023/01/15 01:32:39;;;;;;;0.30;0.30;;;9.30;99.90;;;;;;4408246;32;20506;-72
2023/01/15 01:35:06;;;;;;;0.57;0.57;;;9.30;99.90;;;;;;4407543;32;20530;-72
2023/01/15 01:37:31;;;;;;;0.40;0.40;;;9.40;99.90;;;;;;4409530;32;20605;-75
2023/01/15 01:39:57;;;;;;;0.30;0.30;;;9.40;99.90;;;;;;4404903;32;20061;-75
2023/01/15 01:42:22;;;;;;;2.70;0.50;;;9.40;99.90;;;;;;4391056;32;20184;-75
2023/01/15 01:44:50;;;;;;;0.30;0.30;;;9.40;99.90;;;;;;4396154;32;20065;-72
2023/01/15 01:47:21;;;;;;;0.30;0.30;;;9.40;99.90;;;;;;4407670;32;20069;-73
2023/01/15 01:49:52;;;;;;;0.40;0.40;;;9.40;99.90;;;;;;4407023;32;20147;-73
2023/01/15 01:52:22;;;;;;;0.73;0.73;;;9.40;99.90;;;;;;4407907;32;20085;-73
2023/01/15 01:54:48;;;;;;;0.40;0.40;;;9.40;99.90;;;;;;4406617;32;20592;-71
2023/01/15 01:57:15;;;;;;;0.40;0.40;;;9.40;99.90;;;;;;4408317;32;20105;-72
2023/01/15 01:59:41;;;;;;;0.30;0.30;;;9.40;99.90;;;;;;4408088;32;20133;-75
2023/01/15 02:02:07;;;;;;;0.40;0.40;;;9.30;99.90;;;;;;4407723;32;20086;-73
2023/01/15 02:04:32;;;;;;;0.30;0.30;;;9.30;99.90;;;;;;4407090;32;20145;-71
2023/01/15 02:07:00;;;;;;;0.30;0.30;;;9.30;99.90;;;;;;4406515;32;20524;-72
2023/01/15 02:09:25;;;;;;;0.30;0.30;;;9.20;99.90;;;;;;4406018;32;20098;-75
2023/01/15 02:11:55;;;;;;;0.35;0.35;;;9.20;99.90;;;;;;4390153;32;20101;-75
2023/01/15 02:14:29;;;;;;;0.60;0.60;;;9.20;99.90;;;;;;4393007;32;20070;-75
2023/01/15 02:17:06;;;;;;;0.50;0.50;;;9.10;99.90;;;;;;4406172;32;20114;-73
2023/01/15 02:20:08;;;;;;;0.40;0.40;;;9.10;99.90;;;;;;4406012;32;20082;-72
2023/01/15 02:23:00;;;;;;;0.40;0.40;;;9.10;99.90;;;;;;4393003;32;20117;-71
2023/01/15 02:25:54;;;;;;;0.30;0.30;;;9.00;99.90;;;;;;4394262;32;20069;-72
2023/01/15 02:28:38;;;;;;;0.45;0.45;;;9.00;99.90;;;;;;4396748;32;20081;-73
2023/01/15 02:31:11;;;;;;;0.40;0.40;;;9.00;99.90;;;;;;4390917;32;20074;-72
2023/01/15 02:33:44;;;;;;;0.30;0.30;;;9.00;99.90;;;;;;4407967;32;20126;-71
2023/01/15 02:36:14;;;;;;;0.32;0.32;;;9.00;99.90;;;;;;4406153;32;20116;-72
2023/01/15 02:38:45;;;;;;;0.40;0.40;;;9.00;99.90;;;;;;4405804;32;20545;-72
2023/01/15 02:41:16;;;;;;;0.40;0.40;;;9.00;99.90;;;;;;4394192;32;20090;-73
2023/01/15 02:43:46;;;;;;;0.30;0.30;;;9.00;99.90;;;;;;4390814;32;20086;-75
2023/01/15 02:46:15;;;;;;;0.40;0.40;;;8.90;99.90;;;;;;4403930;32;20418;-73
2023/01/15 02:48:44;;;;;;;0.30;0.30;;;8.90;99.90;;;;;;4406558;32;20525;-72
2023/01/15 02:51:14;;;;;;;0.30;0.30;;;8.90;99.90;;;;;;4406278;32;20076;-74
2023/01/15 02:53:43;;;;;;;0.30;0.30;;;8.90;99.90;;;;;;4405743;32;20081;-75
2023/01/15 02:56:13;;;;;;;0.30;0.30;;;8.90;99.90;;;;;;4406507;32;20058;-73
2023/01/15 02:58:43;;;;;;;0.40;0.40;;;8.90;99.90;;;;;;4407298;32;20156;-73
2023/01/15 03:01:23;;;;;;;0.37;0.37;;;9.00;99.90;;;;;;4404118;32;20081;-74
2023/01/15 03:04:12;;;;;;;0.40;0.40;;;8.90;99.90;;;;;;4405616;32;20101;-72
2023/01/15 03:07:08;;;;;;;0.40;0.40;;;9.00;99.90;;;;;;4395283;32;20073;-72
2023/01/15 03:09:35;;;;;;;0.43;0.43;;;9.00;99.90;;;;;;4395291;32;20549;-75
2023/01/15 03:12:14;;;;;;;0.40;0.40;;;9.00;99.90;;;;;;4389888;32;20098;-75
2023/01/15 03:14:48;;;;;;;0.40;0.40;;;8.90;99.90;;;;;;4391642;32;20557;-74
2023/01/15 03:17:36;;;;;;;0.30;0.30;;;8.90;99.90;;;;;;4404285;32;20090;-71
2023/01/15 03:20:12;;;;;;;0.32;0.32;;;8.90;99.90;;;;;;4393047;32;20071;-73
2023/01/15 03:22:41;;;;;;;0.30;0.30;;;8.90;99.90;;;;;;4407699;32;20449;-72
2023/01/15 03:25:15;;;;;;;0.35;0.35;;;8.90;99.90;;;;;;4405838;32;20081;-72
2023/01/15 03:27:40;;;;;;;0.40;0.40;;;8.90;99.90;;;;;;4405926;32;20510;-71
2023/01/15 03:30:14;;;;;;;0.30;0.30;;;8.90;99.90;;;;;;4403632;32;20066;-71
2023/01/15 03:32:40;;;;;;;0.40;0.40;;;8.90;99.90;;;;;;4405833;32;20106;-73
2023/01/15 03:35:26;;;;;;;0.40;0.40;;;8.90;99.90;;;;;;4405740;32;20080;-75
2023/01/15 03:37:52;;;;;;;0.37;0.37;;;8.90;99.90;;;;;;4394758;32;20231;-74
2023/01/15 03:40:17;;;;;;;0.40;0.40;;;8.90;99.90;;;;;;4400250;32;20114;-74
2023/01/15 03:43:39;;;;;;;0.30;0.30;;;8.90;99.90;;;;;;4388316;32;20083;-72
2023/01/15 03:45:41;;;;;;;0.40;0.40;;;9.00;99.90;;;;;;4385424;32;20085;-72
2023/01/15 03:48:25;;;;;;;0.37;0.37;;;9.00;99.90;;;;;;4405317;32;20144;-73
2023/01/15 03:50:59;;;;;;;0.35;0.35;;;9.00;99.90;;;;;;4406700;32;20093;-73
2023/01/15 03:53:32;;;;;;;1.95;0.80;;;9.00;99.90;;;;;;4404605;32;20129;-72
2023/01/15 03:56:22;;;;;;;0.40;0.40;;;9.00;99.90;;;;;;4406102;32;20512;-73
2023/01/15 03:59:15;;;;;;;0.32;0.32;;;9.00;99.90;;;;;;4390540;32;20144;-74
2023/01/15 04:01:43;;;;;;;0.40;0.40;;;9.00;99.90;;;;;;4394396;32;20099;-72
2023/01/15 04:04:09;;;;;;;0.40;0.40;;;9.00;99.90;;;;;;4405196;32;20081;-73
2023/01/15 04:06:38;;;;;;;0.40;0.40;;;9.00;99.90;;;;;;4406249;32;20109;-73
2023/01/15 04:09:08;;;;;;;0.40;0.40;;;9.00;99.90;;;;;;4405919;32;20126;-72
2023/01/15 04:11:35;;;;;;;0.40;0.40;;;9.00;99.90;;;;;;4390938;32;20085;-76
2023/01/15 04:14:01;;;;;;;0.40;0.40;;;9.00;99.90;;;;;;4389006;32;20090;-75
2023/01/15 04:16:28;;;;;;;0.40;0.40;;;9.00;99.90;;;;;;4406064;32;20078;-73
2023/01/15 04:18:54;;;;;;;0.40;0.40;;;8.90;99.90;;;;;;4408053;32;20615;-73
2023/01/15 04:21:20;;;;;;;0.30;0.30;;;8.80;99.90;;;;;;4409561;32;20089;-73
2023/01/15 04:23:46;;;;;;;0.40;0.40;;;8.60;99.90;;;;;;4409349;32;20099;-72
2023/01/15 04:26:12;;;;;;;0.30;0.30;;;8.30;99.90;;;;;;4407591;32;20538;-73
2023/01/15 04:28:37;;;;;;;0.40;0.40;;;8.10;99.90;;;;;;4409648;32;20062;-72
2023/01/15 04:31:03;;;;;;;0.30;0.30;;;7.90;99.90;;;;;;4407997;32;20110;-72
2023/01/15 04:33:29;;;;;;;0.40;0.40;;;7.70;99.90;;;;;;4408097;32;20538;-73
2023/01/15 04:35:54;;;;;;;0.80;0.75;;;7.60;99.90;;;;;;4407903;32;20133;-72
2023/01/15 04:38:20;;;;;;;0.37;0.37;;;7.40;99.90;;;;;;4408725;32;20223;-73
2023/01/15 04:46:20;;;;;;;0.40;0.40;;;7.10;99.90;;;;;;4393436;32;20058;-73
2023/01/15 04:48:46;;;;;;;0.40;0.40;;;7.00;99.90;;;;;;4408685;32;20069;-72
2023/01/15 04:51:11;;;;;;;0.35;0.35;;;6.90;99.90;;;;;;4408347;32;20545;-74
2023/01/15 04:53:38;;;;;;;0.40;0.40;;;6.90;99.90;;;;;;4407932;32;20419;-73
2023/01/15 04:56:04;;;;;;;0.40;0.40;;;6.80;99.90;;;;;;4409519;32;20078;-75
2023/01/15 04:58:32;;;;;;;0.40;0.40;;;6.70;99.90;;;;;;4408209;32;20108;-74
2023/01/15 05:00:59;;;;;;;0.40;0.40;;;6.70;99.90;;;;;;4406729;32;20089;-71
2023/01/15 05:03:25;;;;;;;0.40;0.40;;;6.60;99.90;;;;;;4408676;32;20110;-70
2023/01/15 05:05:51;;;;;;;0.40;0.40;;;6.60;99.90;;;;;;4409506;32;20082;-71
2023/01/15 05:08:16;;;;;;;0.30;0.30;;;6.60;99.90;;;;;;4407899;32;20090;-72
2023/01/15 05:10:42;;;;;;;0.30;0.30;;;6.60;99.90;;;;;;4400359;32;20590;-73
2023/01/15 05:13:07;;;;;;;0.50;0.50;;;6.60;99.90;;;;;;4390353;32;20350;-76
2023/01/15 05:15:33;;;;;;;0.35;0.35;;;6.60;99.90;;;;;;4402170;32;20066;-73
2023/01/15 05:17:58;;;;;;;0.40;0.40;;;6.50;99.90;;;;;;4407786;32;20089;-73
2023/01/15 05:20:24;;;;;;;0.50;0.50;;;6.50;99.90;;;;;;4408422;32;20106;-71
2023/01/15 05:22:50;;;;;;;0.40;0.40;;;6.50;99.90;;;;;;4406383;32;20101;-72
2023/01/15 05:25:15;;;;;;;0.40;0.40;;;6.60;99.90;;;;;;4408633;32;20076;-72
2023/01/15 05:27:41;;;;;;;0.40;0.40;;;6.60;99.90;;;;;;4408127;32;20062;-72
2023/01/15 05:30:08;;;;;;;0.40;0.40;;;6.50;99.90;;;;;;4406987;32;20073;-72
2023/01/15 05:32:33;;;;;;;0.40;0.40;;;6.40;99.90;;;;;;4408399;32;20579;-74
2023/01/15 05:34:58;;;;;;;0.40;0.40;;;6.40;99.90;;;;;;4409562;32;20090;-72
2023/01/15 05:37:24;;;;;;;0.40;0.40;;;6.40;99.90;;;;;;4407693;32;20132;-74
2023/01/15 05:39:49;;;;;;;0.50;0.50;;;6.40;99.90;;;;;;4405354;32;20247;-75
2023/01/15 05:42:15;;;;;;;0.37;0.37;;;6.40;99.90;;;;;;4388911;32;20092;-76
2023/01/15 05:44:40;;;;;;;0.32;0.32;;;6.40;99.90;;;;;;4392962;32;20097;-72
2023/01/15 05:47:06;;;;;;;0.30;0.30;;;6.30;99.90;;;;;;4407454;32;20079;-73
2023/01/15 05:49:32;;;;;;;1.45;1.15;;;6.30;99.90;;;;;;4407180;32;20105;-73
2023/01/15 05:51:59;;;;;;;0.40;0.40;;;6.30;99.90;;;;;;4407732;32;20078;-72
2023/01/15 05:54:29;;;;;;;0.35;0.35;;;6.20;99.90;;;;;;4393956;32;20082;-73
2023/01/15 05:56:54;;;;;;;0.35;0.35;;;6.30;99.90;;;;;;4407901;32;20168;-71
2023/01/15 05:59:24;;;;;;;0.40;0.40;;;6.30;99.90;;;;;;4407402;32;20171;-72
2023/01/15 06:01:50;;;;;;;0.40;0.40;;;6.30;99.90;;;;;;4406540;32;20152;-73
2023/01/15 06:04:19;;;;;;;0.40;0.40;;;6.30;99.90;;;;;;4408260;32;20062;-72
2023/01/15 06:06:45;;;;;;;0.35;0.35;;;6.30;99.90;;;;;;4406798;32;20097;-74
2023/01/15 06:09:11;;;;;;;0.40;0.40;;;6.40;99.90;;;;;;4407388;32;20149;-71
2023/01/15 06:11:36;;;;;;;0.30;0.30;;;6.40;99.90;;;;;;4392168;32;20065;-74
2023/01/15 06:14:02;;;;;;;0.30;0.30;;;6.40;99.90;;;;;;4390854;32;20074;-75
2023/01/15 06:16:27;;;;;;;0.40;0.40;;;6.50;99.90;;;;;;4405759;32;20078;-71
2023/01/15 06:18:53;;;;;;;0.40;0.40;;;6.50;99.90;;;;;;4407492;32;20094;-73
2023/01/15 06:21:19;;;;;;;0.40;0.40;;;6.40;99.90;;;;;;4406892;32;20092;-73
2023/01/15 06:23:44;;;;;;;0.40;0.40;;;6.40;99.90;;;;;;4406762;32;20082;-73
2023/01/15 06:26:13;;;;;;;0.40;0.40;;;6.50;99.90;;;;;;4407490;32;20093;-71
2023/01/15 06:28:39;;;;;;;0.40;0.40;;;6.60;99.90;;;;;;4406767;32;20073;-73
2023/01/15 06:31:06;;;;;;;0.40;0.40;;;6.60;99.90;;;;;;4405783;32;20565;-74
2023/01/15 06:33:32;;;;;;;0.40;0.40;;;6.60;99.90;;;;;;4408749;32;20090;-74
2023/01/15 06:35:57;;;;;;;0.40;0.40;;;6.60;99.90;;;;;;4406855;32;20477;-75
2023/01/15 06:38:23;;;;;;;0.40;0.40;;;6.60;99.90;;;;;;4404840;32;20066;-72
2023/01/15 06:40:48;;;;;;;0.40;0.40;;;6.60;99.90;;;;;;4400767;32;20394;-74
2023/01/15 06:47:30;;;;;;;0.40;0.40;;;6.60;99.90;;;;;;4390563;32;20507;-72
2023/01/15 06:48:46;;;;;;;0.30;0.30;;;6.50;99.90;;;;;;4394533;32;21075;-73
2023/01/15 06:51:14;;;;;;;0.30;0.30;;;6.60;99.90;;;;;;4409383;32;20125;-73
2023/01/15 06:53:39;;;;;;;0.32;0.32;;;6.50;99.90;;;;;;4406074;32;21232;-73
2023/01/15 06:56:05;;;;;;;0.30;0.30;;;6.50;99.90;;;;;;4406926;32;20451;-72
2023/01/15 06:58:30;;;;;;;0.37;0.37;;;6.50;99.90;;;;;;4406350;32;20676;-73
2023/01/15 07:00:59;;;;;;;0.30;0.30;;;6.50;99.90;;;;;;4406119;32;20089;-72
2023/01/15 07:03:24;;;;;;;0.30;0.30;;;6.40;99.90;;;;;;4406125;32;20105;-73
2023/01/15 07:05:51;;;;;;;0.40;0.40;;;6.40;99.90;;;;;;4405691;32;20134;-73
2023/01/15 07:08:16;;;;;;;0.40;0.40;;;6.50;99.90;;;;;;4406736;32;20118;-74
2023/01/15 07:10:45;;;;;;;0.40;0.40;;;6.40;99.90;;;;;;4398286;32;20194;-74
2023/01/15 07:13:11;;;;;;;0.30;0.30;;;6.40;99.90;;;;;;4389075;32;20530;-75
2023/01/15 07:15:38;;;;;;;0.40;0.40;;;6.40;99.90;;;;;;4400484;32;20132;-73
2023/01/15 07:18:04;;;;;;;0.40;0.40;;;6.50;99.90;;;;;;4406300;32;20070;-73
2023/01/15 07:20:29;;;;;;;0.30;0.30;;;6.40;99.90;;;;;;4407566;32;20065;-74
2023/01/15 07:22:55;;;;;;;0.30;0.30;;;6.40;99.90;;;;;;4405396;32;20093;-74
2023/01/15 07:25:20;;;;;;;0.30;0.30;;;6.40;99.90;;;;;;4406476;32;20115;-72
2023/01/15 07:27:46;;;;;;;6.32;0.95;;;6.30;99.90;;;;;;4405988;32;20099;-72
2023/01/15 07:30:13;;;;;;;0.30;0.30;;;6.30;99.90;;;;;;4405478;32;20124;-72
2023/01/15 07:32:39;;;;;;;0.45;0.45;;;6.20;99.90;;;;;;4405271;32;20445;-72
2023/01/15 07:35:05;;;;;;;0.30;0.30;;;6.20;99.90;;;;;;4406807;32;20106;-72
2023/01/15 07:37:30;;;;;;;0.40;0.40;;;6.20;99.90;;;;;;4405879;32;20796;-73
2023/01/15 07:39:56;;;;;;;0.40;0.40;;;6.20;99.90;;;;;;4402330;32;20073;-74
2023/01/15 07:49:55;;;;;;;0.30;0.30;;;6.10;99.90;;;;;;4394106;32;20093;-72
2023/01/15 07:50:40;;;;;;;0.40;0.40;;;6.20;99.90;;;;;;4394900;32;20094;-74
2023/01/15 07:53:06;;;;;;;0.60;0.60;;;6.20;99.90;;;;;;4403358;32;20544;-74
2023/01/15 07:55:34;;;;;;;0.30;0.30;;;6.30;99.90;;;;;;4406615;32;20085;-74
2023/01/15 07:58:01;;;;;;;0.40;0.40;;;6.20;99.90;;;;;;4405860;32;20115;-74
2023/01/15 08:00:26;;;;;;;0.30;0.30;;;6.10;99.90;;;;;;4405384;32;20065;-73
2023/01/15 08:02:52;;;;;;;0.40;0.40;;;6.20;99.90;;;;;;4406867;32;20078;-72
2023/01/15 08:05:18;;;;;;;0.45;0.45;;;6.30;99.90;;;;;;4407463;32;20069;-73
2023/01/15 08:07:44;;;;;;;0.35;0.35;;;6.20;99.90;;;;;;4405899;32;20070;-72
2023/01/15 08:10:11;;;;;;;0.40;0.40;;;6.20;99.90;;;;;;4401287;32;20069;-74
2023/01/15 08:15:25;;;;;;;0.40;0.40;;;6.20;99.90;;;;;;4387550;32;20074;-71
2023/01/15 08:17:51;;;;;;;0.30;0.30;;;6.20;99.90;;;;;;4405286;32;20078;-75
2023/01/15 08:20:21;;;;;;;0.40;0.40;;;6.30;99.90;;;;;;4406857;32;20097;-73
2023/01/15 08:22:47;;;;;;;0.40;0.40;;;6.30;99.90;;;;;;4405384;32;20098;-72
2023/01/15 08:25:16;;;;;;;0.30;0.30;;;6.20;99.90;;;;;;4405212;32;20513;-72
2023/01/15 08:27:44;;;;;;;0.40;0.40;;;6.20;99.90;;;;;;4405012;32;20540;-75
2023/01/15 08:30:13;;;;;;;1.40;0.68;;;6.20;99.90;;;;;;4405378;32;20089;-73
2023/01/15 08:32:40;;;;;;;0.40;0.40;;;6.20;99.90;;;;;;4403946;32;20058;-74
2023/01/15 08:35:06;;;;;;;0.45;0.45;;;6.20;99.90;;;;;;4404474;32;20528;-71
2023/01/15 08:37:32;;;;;;;0.40;0.40;;;6.30;99.90;;;;;;4405616;32;20070;-73
2023/01/15 08:39:58;;;;;;;1.55;1.10;;;6.30;99.90;;;;;;4401568;32;20597;-75
2023/01/15 08:42:23;;;;;;;3.37;0.60;;;6.30;99.90;;;;;;4387529;32;20066;-76
2023/01/15 08:44:49;;;;;;;0.60;0.60;;;6.30;99.90;;;;;;4392486;32;20117;-74
2023/01/15 08:47:16;;;;;;;0.30;0.30;;;6.40;99.90;;;;;;4404786;32;20140;-76
2023/01/15 08:49:42;;;;;;;0.30;0.30;;;6.30;99.90;;;;;;4405306;32;20142;-72
2023/01/15 08:52:07;;;;;;;0.40;0.40;;;6.30;99.90;;;;;;4405195;32;20482;-72
2023/01/15 08:54:33;;;;;;;0.50;0.50;;;6.30;99.90;;;;;;4406135;32;20077;-73
2023/01/15 08:56:59;;;;;;;0.45;0.45;;;6.30;99.90;;;;;;4405165;32;20106;-73
2023/01/15 08:59:24;;;;;;;0.40;0.40;;;6.40;99.90;;;;;;4406157;32;20129;-74
2023/01/15 09:01:50;;;;;;;0.30;0.30;;;6.40;99.90;;;;;;4404760;32;20117;-73
2023/01/15 09:04:18;;;;;;;0.60;0.60;;;6.40;99.90;;;;;;4408920;32;20066;-73
2023/01/15 09:06:44;;;;;;;0.40;0.40;;;6.40;99.90;;;;;;4408264;32;20061;-73
2023/01/15 09:09:13;;;;;;;0.40;0.40;;;6.30;99.90;;;;;;4408942;32;20313;-72
2023/01/15 09:11:39;;;;;;;0.30;0.30;;;6.40;99.90;;;;;;4378196;32;20074;-74
2023/01/15 09:14:07;;;;;;;0.30;0.30;;;6.40;99.90;;;;;;4393410;32;20655;-75
2023/01/15 09:16:33;;;;;;;0.40;0.40;;;6.40;99.90;;;;;;4405800;32;20482;-75
2023/01/15 09:18:59;;;;;;;0.45;0.45;;;6.40;99.90;;;;;;4407553;32;20459;-72
2023/01/15 09:21:24;;;;;;;0.57;0.57;;;6.40;99.90;;;;;;4408192;32;20069;-73
2023/01/15 09:23:50;;;;;;;0.30;0.30;;;6.50;99.90;;;;;;4407742;32;20121;-72
2023/01/15 09:26:29;;;;;;;0.40;0.40;;;6.50;99.90;;;;;;4407295;32;20070;-71
2023/01/15 09:28:57;;;;;;;0.60;0.60;;;6.50;99.90;;;;;;4393511;32;20835;-72
2023/01/15 09:31:23;;;;;;;0.32;0.32;;;6.40;99.90;;;;;;4407582;32;20131;-71
2023/01/15 09:33:48;;;;;;;8.68;0.70;;;6.40;99.90;;;;;;4409437;32;20103;-73
2023/01/15 09:36:18;;;;;;;0.40;0.40;;;6.50;99.90;;;;;;4407258;32;20082;-72
2023/01/15 09:38:44;;;;;;;0.40;0.40;;;6.50;99.90;;;;;;4406766;32;20131;-72
2023/01/15 09:42:04;;;;;;;0.40;0.40;;;6.60;99.90;;;;;;4397271;32;20089;-76
2023/01/15 09:44:11;;;;;;;0.30;0.30;;;6.60;99.90;;;;;;4379051;32;20860;-73
2023/01/15 09:47:06;;;;;;;0.30;0.30;;;6.60;99.90;;;;;;4406382;32;20118;-73
2023/01/15 09:49:53;;;;;;;0.37;0.37;;;6.50;99.90;;;;;;4394669;32;20114;-73
2023/01/15 09:52:49;;;;;;;0.37;0.37;;;6.50;99.90;;;;;;4408198;32;20528;-73
2023/01/15 09:55:19;;;;;;;0.37;0.37;;;6.50;99.90;;;;;;4394664;32;20553;-72
2023/01/15 09:57:50;;;;;;;0.43;0.43;;;6.60;99.90;;;;;;4406268;32;20474;-73
2023/01/15 10:00:20;;;;;;;9.90;3.10;;;6.60;99.90;;;;;;4407825;32;20145;-73
2023/01/15 10:02:54;;;;;;;6.43;3.47;;;6.70;99.90;;;;;;4407589;32;20074;-74
2023/01/15 10:05:28;;;;;;;0.75;0.70;;;6.80;99.90;;;;;;4408725;32;20214;-72
2023/01/15 10:08:02;;;;;;;1.00;0.85;;;6.80;99.90;;;;;;4407923;32;20066;-73
2023/01/15 10:10:33;;;;;;;2.17;1.20;;;6.90;99.90;;;;;;4401280;32;20078;-75
2023/01/15 10:13:05;;;;;;;;;;;6.80;99.90;;;;;;4390874;32;20149;-75
2023/01/15 10:15:38;;;;;;;0.60;0.60;;;6.80;99.90;;;;;;4401676;32;20021;-72
2023/01/15 10:18:07;;;;;;;0.30;0.30;;;6.80;99.90;;;;;;4407609;32;20062;-73
2023/01/15 10:20:59;;;;;;;0.40;0.40;;;6.90;99.90;;;;;;4409741;32;20066;-73
2023/01/15 10:23:38;;;;;;;0.40;0.40;;;6.90;99.90;;;;;;4397209;32;20057;-72
2023/01/15 10:26:28;;;;;;;0.80;0.60;;;6.90;99.90;;;;;;4393605;32;20110;-75
2023/01/15 10:28:59;;;;;;;0.50;0.50;;;7.00;99.90;;;;;;4392759;32;20097;-73
2023/01/15 10:31:50;;;;;;;0.30;0.30;;;7.10;99.90;;;;;;4406294;32;20116;-73
2023/01/15 10:34:37;;;;;;;0.40;0.40;;;7.10;99.90;;;;;;4393305;32;20090;-73
2023/01/15 10:37:08;;;;;;;0.50;0.50;;;7.20;99.90;;;;;;4393499;32;20090;-72
2023/01/15 10:39:48;;;;;;;0.30;0.30;;;7.20;99.90;;;;;;4405245;32;20494;-74
2023/01/15 10:42:29;;;;;;;0.30;0.30;;;7.20;99.90;;;;;;4388638;32;20393;-76
2023/01/15 10:45:15;;;;;;;;;;;7.20;99.90;;;;;;4395458;32;20078;-75
2023/01/15 10:47:45;;;;;;;0.40;0.40;;;7.30;99.90;;;;;;4395231;32;20082;-72
2023/01/15 10:50:18;;;;;;;0.47;0.47;;;7.20;99.90;;;;;;4406163;32;20114;-73
2023/01/15 10:52:50;;;;;;;0.40;0.40;;;7.30;99.90;;;;;;4405010;32;20287;-75
2023/01/15 10:55:26;;;;;;;0.82;0.82;;;7.20;99.90;;;;;;4407231;32;20066;-72
2023/01/15 10:58:07;;;;;;;0.40;0.40;;;7.30;99.90;;;;;;4407142;32;20086;-74
2023/01/15 11:00:33;;;;;;;0.30;0.30;;;7.30;99.90;;;;;;4405688;32;20079;-72
2023/01/15 11:03:07;;;;;;;0.40;0.40;;;7.30;99.90;;;;;;4405799;32;20074;-74
2023/01/15 11:05:34;;;;;;;0.40;0.40;;;7.40;99.90;;;;;;4407528;32;20078;-75
2023/01/15 11:08:04;;;;;;;0.35;0.35;;;7.40;99.90;;;;;;4405862;32;20074;-72
2023/01/15 11:10:31;;;;;;;0.50;0.50;;;7.50;99.90;;;;;;4402582;32;20518;-75
2023/01/15 11:19:38;;;;;;;0.30;0.30;;;7.40;99.90;;;;;;4395296;32;20578;-72
2023/01/15 11:21:24;;;;;;;0.30;0.30;;;7.50;99.90;;;;;;4395286;32;20098;-74
2023/01/15 11:23:51;;;;;;;0.40;0.40;;;7.40;99.90;;;;;;4394600;32;20427;-72
2023/01/15 11:26:33;;;;;;;0.40;0.40;;;7.40;99.90;;;;;;4407515;32;20105;-73
2023/01/15 11:29:10;;;;;;;0.40;0.40;;;7.40;99.90;;;;;;4407281;32;20085;-74
2023/01/15 11:31:38;;;;;;;0.40;0.40;;;7.40;99.90;;;;;;4391794;32;20069;-72
2023/01/15 11:34:24;;;;;;;2.10;1.50;;;7.40;99.90;;;;;;4405517;32;20085;-72
2023/01/15 11:37:05;;;;;;;0.32;0.32;;;7.50;99.90;;;;;;4393485;32;20082;-75
2023/01/15 11:39:31;;;;;;;0.40;0.40;;;7.50;99.90;;;;;;4404096;32;20640;-76
2023/01/15 11:51:00;;;;;;;0.32;0.32;;;7.40;99.90;;;;;;4393816;32;20470;-74
2023/01/15 11:53:28;;;;;;;0.20;0.20;;;7.40;99.90;;;;;;4405595;32;20085;-74
2023/01/15 11:55:59;;;;;;;0.40;0.40;;;7.40;99.90;;;;;;4405163;32;20497;-72
2023/01/15 11:58:26;;;;;;;0.40;0.40;;;7.40;99.90;;;;;;4406274;32;20093;-73
2023/01/15 12:00:55;;;;;;;0.40;0.40;;;7.40;99.90;;;;;;4406053;32;20078;-72
2023/01/15 12:03:25;;;;;;;0.50;0.50;;;7.40;99.90;;;;;;4407037;32;20118;-74
2023/01/15 12:06:04;;;;;;;0.40;0.40;;;7.30;99.90;;;;;;4406760;32;20070;-72
2023/01/15 12:08:51;;;;;;;0.40;0.40;;;7.40;99.90;;;;;;4391086;32;21090;-74
2023/01/15 12:11:27;;;;;;;0.32;0.32;;;7.40;99.90;;;;;;4382680;32;20397;-72
2023/01/15 12:14:33;;;;;;;0.37;0.37;;;7.40;99.90;;;;;;4390855;32;20097;-76
2023/01/15 12:17:28;;;;;;;0.40;0.40;;;7.40;99.90;;;;;;4385273;32;20065;-72
2023/01/15 12:20:06;;;;;;;0.30;0.30;;;7.50;99.90;;;;;;4395818;32;20120;-74
2023/01/15 12:22:53;;;;;;;0.30;0.30;;;7.50;99.90;;;;;;4405023;32;20829;-72
2023/01/15 12:25:46;;;;;;;0.32;0.32;;;7.50;99.90;;;;;;4397610;32;20089;-75
2023/01/15 12:28:18;;;;;;;0.55;0.55;;;7.50;99.90;;;;;;4402999;32;20422;-72
2023/01/15 12:31:10;;;;;;;0.50;0.50;;;7.50;99.90;;;;;;4403454;32;20509;-73
2023/01/15 12:33:46;;;;;;;1.48;1.37;;;7.50;99.90;;;;;;4386989;32;20100;-73
2023/01/15 12:36:21;;;;;;;0.50;0.50;;;7.50;99.90;;;;;;4405165;32;20518;-73
2023/01/15 12:38:52;;;;;;;0.85;0.47;;;7.50;99.90;;;;;;4412203;32;20519;-73
2023/01/15 12:44:58;;;;;;;3.22;0.60;;;7.60;99.90;;;;;;4401173;32;20534;-76
2023/01/15 12:45:17;;;;;;;0.30;0.30;;;7.70;99.90;;;;;;4389515;32;20089;-75
2023/01/15 12:47:09;;;;;;;0.40;0.40;;;7.70;99.90;;;;;;4400782;32;20077;-72
2023/01/15 12:49:45;;;;;;;0.40;0.40;;;7.70;99.90;;;;;;4413161;32;20114;-72
2023/01/15 12:52:17;;;;;;;0.40;0.40;;;7.70;99.90;;;;;;4409426;32;20501;-72
2023/01/15 12:54:51;;;;;;;0.30;0.30;;;7.60;99.90;;;;;;4408341;32;20077;-73
2023/01/15 12:57:30;;;;;;;12.68;0.60;;;7.60;99.90;;;;;;4409524;32;20427;-74
2023/01/15 13:00:02;;;;;;;0.32;0.32;;;7.60;99.90;;;;;;4407434;32;20197;-74
2023/01/15 13:02:59;;;;;;;0.30;0.30;;;7.70;99.90;;;;;;4408738;32;20069;-73
2023/01/15 13:05:54;;;;;;;0.40;0.40;;;7.60;99.90;;;;;;4410319;32;20176;-73
2023/01/15 13:08:33;;;;;;;0.40;0.40;;;7.50;99.90;;;;;;4413994;32;20113;-74
2023/01/15 13:10:59;;;;;;;0.30;0.30;;;7.60;99.90;;;;;;4398804;32;20065;-74
2023/01/15 13:13:38;;;;;;;0.40;0.40;;;7.70;99.90;;;;;;4396864;32;20106;-77
2023/01/15 13:16:14;;;;;;;0.40;0.40;;;7.70;99.90;;;;;;4403826;32;20086;-74
2023/01/15 13:18:57;;;;;;;0.40;0.40;;;7.90;99.90;;;;;;4393384;32;20106;-72
2023/01/15 13:21:28;;;;;;;0.40;0.40;;;8.00;99.90;;;;;;4409007;32;20058;-73
2023/01/15 13:24:12;;;;;;;0.40;0.40;;;8.00;99.90;;;;;;4408751;32;20513;-72
2023/01/15 13:27:18;;;;;;;0.77;0.77;;;8.10;99.90;;;;;;4406990;32;20106;-73
2023/01/15 13:29:57;;;;;;;0.37;0.37;;;7.90;99.90;;;;;;4388869;32;20599;-73
2023/01/15 13:32:31;;;;;;;0.40;0.40;;;7.80;99.90;;;;;;4408419;32;20065;-73
2023/01/15 13:35:04;;;;;;;0.40;0.40;;;7.70;99.90;;;;;;4407812;32;20057;-71
2023/01/15 13:37:36;;;;;;;0.35;0.35;;;7.60;99.90;;;;;;4409603;32;20435;-72
2023/01/15 13:40:12;;;;;;;0.30;0.30;;;7.60;99.90;;;;;;4412958;32;20074;-74
2023/01/15 13:42:39;;;;;;;0.40;0.40;;;7.60;99.90;;;;;;4397299;32;20549;-74
2023/01/15 13:45:26;;;;;;;0.43;0.43;;;7.50;99.90;;;;;;4407822;32;20264;-77
2023/01/15 13:47:57;;;;;;;20.67;1.17;;;7.50;99.90;;;;;;4402560;32;20070;-73
2023/01/15 13:50:35;;;;;;;0.30;0.30;;;7.50;99.90;;;;;;4417401;32;20086;-72
2023/01/15 13:53:26;;;;;;;0.40;0.40;;;7.40;99.90;;;;;;4406590;32;20586;-75
2023/01/15 13:55:54;;;;;;;;;;;7.40;99.90;;;;;;4395700;32;20082;-72